Time;durP1;ratioP1;P1;durP2;ratioP2;P2;SDS_P1;SDS_P2;PMS_P1;PMS_P2;Temp;Humidity;BMP_temperature;BMP_pressure;BME280_temperature;BME280_humidity;BME280_pressure;Samples;Min_cycle;Max_cycle;Signal;HPM_P1;HPM_P2
2022/09/19 00:02:14;;;;;;;0.10;0.10;;;;;;;12.65;66.58;101949.28;5010479;28;20153;-80
2022/09/19 00:04:40;;;;;;;0.20;0.20;;;;;;;12.65;66.49;101954.59;5010625;28;20576;-80
2022/09/19 00:07:07;;;;;;;0.10;0.10;;;;;;;12.65;66.05;101949.28;5011647;28;20038;-80
2022/09/19 00:09:33;;;;;;;0.10;0.10;;;;;;;12.69;66.17;101945.72;5011600;28;20034;-80
2022/09/19 00:12:01;;;;;;;0.10;0.10;;;;;;;12.70;66.20;101950.16;5010270;28;20084;-80
2022/09/19 00:14:30;;;;;;;0.10;0.10;;;;;;;12.72;66.23;101950.97;5006930;28;20038;-79
2022/09/19 00:17:01;;;;;;;0.10;0.10;;;;;;;12.76;66.25;101955.34;5010691;28;20370;-80
2022/09/19 00:19:28;;;;;;;0.10;0.10;;;;;;;12.71;66.76;101954.53;5011518;28;20034;-80
2022/09/19 00:21:57;;;;;;;0.10;0.10;;;;;;;12.69;66.34;101953.69;5011394;28;20030;-80
2022/09/19 00:24:55;;;;;;;0.10;0.10;;;;;;;12.66;66.55;101951.06;5010372;28;20485;-79
2022/09/19 00:27:12;;;;;;;0.00;0.00;;;;;;;12.67;66.49;101943.03;5012159;28;20030;-79
2022/09/19 00:29:41;;;;;;;0.10;0.10;;;;;;;12.70;66.36;101942.16;5011378;28;20061;-80
2022/09/19 00:32:11;;;;;;;0.10;0.10;;;;;;;12.65;65.95;101942.22;5010901;28;20034;-79
2022/09/19 00:34:39;;;;;;;0.10;0.10;;;;;;;12.70;66.19;101950.16;5012117;28;20026;-80
2022/09/19 00:37:06;;;;;;;0.10;0.10;;;;;;;12.70;66.04;101955.47;5010790;28;20048;-80
2022/09/19 00:39:32;;;;;;;0.10;0.10;;;;;;;12.68;65.87;101952.78;5011335;28;20132;-79
2022/09/19 00:41:59;;;;;;;0.10;0.10;;;;;;;12.65;65.62;101957.25;5016606;28;20520;-79
2022/09/19 00:47:07;;;;;;;0.10;0.10;;;;;;;12.70;65.59;101961.66;5068555;28;20453;-79
2022/09/19 00:49:37;;;;;;;;;;;;;;;12.85;64.73;101960.59;5068974;28;20036;-80
2022/09/19 00:52:11;;;;;;;0.10;0.10;;;;;;;12.66;64.74;101959.94;5047513;28;19967;-80
2022/09/19 00:54:42;;;;;;;0.10;0.10;;;;;;;12.61;65.19;101969.69;5039710;28;20041;-80
2022/09/19 00:57:12;;;;;;;0.10;0.10;;;;;;;12.59;64.89;101961.75;5048591;28;20028;-80
2022/09/19 00:59:42;;;;;;;0.15;0.15;;;;;;;12.56;64.34;101963.56;5050046;28;20099;-80
2022/09/19 01:02:09;;;;;;;0.10;0.10;;;;;;;12.56;65.36;101971.53;5044268;28;20436;-80
2022/09/19 01:04:35;;;;;;;0.10;0.10;;;;;;;12.57;65.57;101973.31;5031268;28;20532;-80
2022/09/19 01:13:09;;;;;;;0.10;0.10;;;;;;;12.68;64.42;101965.22;5059610;28;20384;-80
2022/09/19 01:15:49;;;;;;;0.10;0.10;;;;;;;12.57;64.05;101978.63;5058570;28;20044;-80
2022/09/19 01:18:18;;;;;;;0.10;0.10;;;;;;;12.59;64.43;101977.69;5058915;28;20036;-80
2022/09/19 01:21:46;;;;;;;0.10;0.10;;;;;;;12.74;63.97;101967.81;5049860;28;20508;-80
2022/09/19 01:27:27;;;;;;;0.10;0.10;;;;;;;12.83;64.70;101972.16;5109335;27;20426;-80
2022/09/19 01:30:03;;;;;;;0.10;0.10;;;;;;;12.79;65.13;101979.28;5087309;28;20075;-80
2022/09/19 01:32:35;;;;;;;0.20;0.20;;;;;;;12.75;65.16;101969.59;5086488;28;20024;-80
2022/09/19 01:35:05;;;;;;;;;;;;;;;12.86;64.72;101969.44;5090354;28;20338;-79
2022/09/19 01:37:38;;;;;;;0.10;0.10;;;;;;;12.69;64.91;101973.19;5090956;28;19919;-80
2022/09/19 01:40:06;;;;;;;0.13;0.13;;;;;;;12.64;65.03;101964.38;5087622;28;20108;-80
2022/09/19 01:42:32;;;;;;;0.10;0.10;;;;;;;12.59;65.06;101969.72;5090499;28;20040;-80
2022/09/19 01:44:59;;;;;;;0.10;0.10;;;;;;;12.61;65.09;101975.91;5087270;28;20086;-80
2022/09/19 01:50:32;;;;;;;0.10;0.10;;;;;;;12.70;64.90;101959.00;5048437;28;20418;-80
2022/09/19 01:56:09;;;;;;;0.10;0.10;;;;;;;12.91;65.36;101967.59;5049345;28;20404;-80
2022/09/19 01:58:48;;;;;;;0.10;0.10;;;;;;;12.83;64.25;101975.69;5045661;28;20029;-79
2022/09/19 02:01:26;;;;;;;0.10;0.10;;;;;;;12.85;65.31;101979.22;5046939;28;20032;-80
2022/09/19 02:04:04;;;;;;;0.10;0.10;;;;;;;12.83;65.79;101980.13;5046451;28;20029;-80
2022/09/19 02:12:01;;;;;;;0.10;0.10;;;;;;;12.86;65.30;101980.06;5093541;27;20375;-80
2022/09/19 02:14:35;;;;;;;0.10;0.10;;;;;;;12.84;65.00;101980.09;5087981;28;20040;-80
2022/09/19 02:17:07;;;;;;;1.85;1.75;;;;;;;12.88;64.45;101987.13;5083423;28;20013;-80
2022/09/19 02:22:16;;;;;;;0.10;0.10;;;;;;;13.00;64.26;101988.78;5052853;28;20431;-80
2022/09/19 02:24:45;;;;;;;0.10;0.10;;;;;;;13.04;63.21;101989.63;5036269;28;20039;-80
2022/09/19 02:27:20;;;;;;;0.68;0.68;;;;;;;13.11;62.41;101986.88;5042792;28;20492;-80
2022/09/19 02:29:53;;;;;;;0.20;0.20;;;;;;;13.23;63.32;101991.19;5037027;28;20080;-80
2022/09/19 02:32:21;;;;;;;0.17;0.17;;;;;;;13.31;63.07;101998.16;5032407;28;20436;-80
2022/09/19 02:34:49;;;;;;;0.10;0.10;;;;;;;13.35;63.45;101994.59;5034306;28;20033;-80
2022/09/19 02:37:40;;;;;;;0.20;0.20;;;;;;;13.40;61.20;101993.63;5037108;28;20423;-80
2022/09/19 02:40:20;;;;;;;0.35;0.35;;;;;;;13.56;62.37;101989.00;5034907;28;20033;-80
2022/09/19 02:42:58;;;;;;;0.00;0.00;;;;;;;13.61;61.59;101993.34;5041859;28;20021;-80
2022/09/19 02:45:31;;;;;;;4.18;1.48;;;;;;;13.63;61.41;101989.78;5035842;28;20056;-80
2022/09/19 02:51:09;;;;;;;0.10;0.10;;;;;;;13.87;62.19;101988.53;5047503;28;20434;-80
2022/09/19 02:53:42;;;;;;;0.10;0.10;;;;;;;13.83;60.80;101991.25;5031722;28;20493;-80
2022/09/19 02:56:14;;;;;;;0.10;0.10;;;;;;;13.83;61.03;101991.25;5037060;28;20030;-80
2022/09/19 02:58:47;;;;;;;0.10;0.10;;;;;;;13.86;60.68;101992.09;5033361;28;20037;-79
2022/09/19 03:01:23;;;;;;;0.25;0.25;;;;;;;13.89;60.66;102000.06;5036463;28;20033;-80
2022/09/19 03:04:14;;;;;;;0.30;0.30;;;;;;;13.91;60.79;101992.91;5034496;28;20083;-80
2022/09/19 03:09:32;;;;;;;0.10;0.10;;;;;;;13.89;60.64;101992.06;5101811;27;20410;-80
2022/09/19 03:12:18;;;;;;;0.10;0.10;;;;;;;13.96;61.15;101997.31;5083042;28;20110;-80
2022/09/19 03:14:45;;;;;;;0.10;0.10;;;;;;;13.88;62.36;101989.41;5088170;28;20030;-80
2022/09/19 03:17:16;;;;;;;0.10;0.10;;;;;;;13.93;61.27;101997.34;5090019;28;20081;-80
2022/09/19 03:19:47;;;;;;;0.10;0.10;;;;;;;13.93;60.98;101998.19;5087994;28;20510;-80
2022/09/19 03:22:13;;;;;;;0.10;0.10;;;;;;;13.89;60.04;102000.06;5085991;28;20060;-80
2022/09/19 03:24:41;;;;;;;0.10;0.10;;;;;;;13.96;61.82;101997.31;5087425;28;20463;-80
2022/09/19 03:27:08;;;;;;;0.10;0.10;;;;;;;13.93;61.63;102000.00;5082039;28;20400;-80
2022/09/19 03:29:35;;;;;;;0.10;0.10;;;;;;;13.94;62.11;101993.78;5086201;28;20044;-80
2022/09/19 03:32:02;;;;;;;0.10;0.10;;;;;;;13.91;61.72;101997.38;5089092;28;20423;-80
2022/09/19 03:34:30;;;;;;;0.10;0.10;;;;;;;13.89;61.12;102001.81;5082407;28;20041;-80
2022/09/19 03:36:57;;;;;;;0.10;0.10;;;;;;;13.86;61.41;102002.75;5088935;28;20051;-80
2022/09/19 03:39:23;;;;;;;0.13;0.13;;;;;;;13.86;61.59;101996.56;5084225;28;20112;-80
2022/09/19 03:41:50;;;;;;;0.15;0.15;;;;;;;13.86;61.66;102002.75;5082273;27;20024;-80
2022/09/19 03:44:19;;;;;;;0.10;0.10;;;;;;;13.84;61.45;102001.88;5087515;28;20025;-80
2022/09/19 03:46:46;;;;;;;1.75;1.65;;;;;;;13.84;61.72;102001.88;5083288;28;20257;-80
2022/09/19 03:49:12;;;;;;;0.10;0.10;;;;;;;13.81;61.94;102001.09;5088183;28;20028;-80
2022/09/19 03:51:39;;;;;;;0.10;0.10;;;;;;;13.80;61.94;102008.19;5088121;28;20029;-80
2022/09/19 03:54:06;;;;;;;0.10;0.10;;;;;;;13.77;61.37;102010.91;5073327;28;20471;-80
2022/09/19 03:56:32;;;;;;;0.10;0.10;;;;;;;13.74;60.91;102002.94;5088023;28;20090;-80
2022/09/19 03:58:58;;;;;;;0.10;0.10;;;;;;;13.76;61.04;102001.13;5076164;28;20505;-80
2022/09/19 04:01:27;;;;;;;0.10;0.10;;;;;;;13.80;60.87;102018.84;5079894;28;20523;-80
2022/09/19 04:03:53;;;;;;;1.35;1.35;;;;;;;13.84;61.67;102015.22;5082078;28;20036;-80
2022/09/19 04:06:20;;;;;;;0.10;0.10;;;;;;;13.84;61.61;102020.53;5082875;28;20016;-80
2022/09/19 04:08:46;;;;;;;0.10;0.10;;;;;;;13.84;61.04;102014.34;5081800;28;20032;-80
2022/09/19 04:11:12;;;;;;;0.10;0.10;;;;;;;13.85;60.39;102018.78;5080907;27;20037;-80
2022/09/19 04:13:38;;;;;;;0.10;0.10;;;;;;;13.91;60.85;102016.03;5079591;28;20069;-80
2022/09/19 04:16:06;;;;;;;0.10;0.10;;;;;;;13.95;60.98;102016.84;5085302;28;20594;-80
2022/09/19 04:18:33;;;;;;;0.10;0.10;;;;;;;13.99;60.34;102023.88;5087190;28;20390;-80
2022/09/19 04:21:00;;;;;;;0.10;0.10;;;;;;;14.02;60.49;102015.84;5074878;28;20023;-80
2022/09/19 04:23:26;;;;;;;0.10;0.10;;;;;;;14.03;60.86;102026.50;5072114;28;20032;-80
2022/09/19 04:25:53;;;;;;;1.08;0.45;;;;;;;14.03;60.45;102023.81;5072728;28;20139;-80
2022/09/19 04:28:20;;;;;;;0.10;0.10;;;;;;;14.02;60.15;102023.84;5067956;28;20017;-80
2022/09/19 04:30:46;;;;;;;0.10;0.10;;;;;;;14.01;60.33;102032.75;5070455;28;20078;-80
2022/09/19 04:33:13;;;;;;;0.10;0.10;;;;;;;13.97;59.62;102031.00;5069947;28;20737;-80
2022/09/19 04:35:41;;;;;;;0.10;0.10;;;;;;;13.99;60.82;102029.22;5067411;28;20092;-80
2022/09/19 04:38:12;;;;;;;0.10;0.10;;;;;;;13.91;59.57;102024.88;5073176;28;20038;-80
2022/09/19 04:40:41;;;;;;;0.30;0.30;;;;;;;13.87;59.79;102028.50;5072480;28;20032;-80
2022/09/19 04:43:09;;;;;;;0.10;0.10;;;;;;;13.89;59.47;102034.69;5074981;28;20036;-80
2022/09/19 04:45:36;;;;;;;0.10;0.10;;;;;;;13.87;60.38;102031.16;5068418;28;20056;-80
2022/09/19 04:48:05;;;;;;;0.55;0.55;;;;;;;13.84;59.45;102041.84;5072888;28;20047;-80
2022/09/19 04:50:32;;;;;;;0.10;0.10;;;;;;;13.84;59.40;102031.19;5069152;28;20029;-80
2022/09/19 04:52:59;;;;;;;0.10;0.10;;;;;;;13.84;60.29;102030.31;5069528;28;20040;-80
2022/09/19 04:55:25;;;;;;;0.10;0.10;;;;;;;13.79;59.30;102034.84;5069851;28;20036;-80
2022/09/19 04:57:51;;;;;;;0.10;0.10;;;;;;;13.81;59.71;102039.25;5068348;28;20024;-80
2022/09/19 05:00:36;;;;;;;0.10;0.10;;;;;;;13.82;59.96;102040.09;5071478;28;20036;-80
2022/09/19 05:03:07;;;;;;;0.20;0.20;;;;;;;13.79;59.56;102041.03;5070868;28;20054;-80
2022/09/19 05:05:36;;;;;;;0.10;0.10;;;;;;;13.82;59.77;102041.00;5066005;28;20108;-80
2022/09/19 05:08:04;;;;;;;0.10;0.10;;;;;;;13.82;59.65;102038.34;5065697;28;20024;-80
2022/09/19 05:10:32;;;;;;;0.65;0.65;;;;;;;13.89;60.28;102048.03;5072438;28;20078;-81
2022/09/19 05:12:59;;;;;;;0.10;0.10;;;;;;;13.90;59.30;102047.09;5062037;28;20021;-80
2022/09/19 05:15:25;;;;;;;0.10;0.10;;;;;;;13.97;59.74;102058.56;5058001;28;20032;-80
2022/09/19 05:17:53;;;;;;;0.13;0.13;;;;;;;14.01;59.43;102054.94;5071350;28;20032;-80
2022/09/19 05:20:20;;;;;;;0.10;0.10;;;;;;;14.08;59.45;102051.28;5068396;28;20504;-80
2022/09/19 05:22:46;;;;;;;0.10;0.10;;;;;;;14.13;59.71;102051.22;5061588;28;20032;-80
2022/09/19 05:25:15;;;;;;;0.10;0.10;;;;;;;14.15;59.55;102062.72;5065142;28;20021;-80
2022/09/19 05:27:41;;;;;;;0.10;0.10;;;;;;;14.19;59.63;102059.13;5064602;28;20439;-81
2022/09/19 05:30:09;;;;;;;0.15;0.15;;;;;;;14.18;58.34;102062.69;5058643;28;20054;-80
2022/09/19 05:32:35;;;;;;;0.10;0.10;;;;;;;14.21;58.63;102067.94;5068435;28;20066;-81
2022/09/19 05:35:01;;;;;;;0.10;0.10;;;;;;;14.29;59.08;102064.28;5072340;28;20043;-81
2022/09/19 05:37:27;;;;;;;0.10;0.10;;;;;;;14.28;58.09;102063.41;5064621;28;20142;-81
2022/09/19 05:39:54;;;;;;;0.10;0.10;;;;;;;14.30;58.39;102063.38;5066237;28;20028;-80
2022/09/19 05:42:20;;;;;;;0.10;0.10;;;;;;;14.32;58.77;102073.13;5069844;28;20041;-81
2022/09/19 05:44:46;;;;;;;0.10;0.10;;;;;;;14.37;58.60;102067.72;5066059;28;20031;-81
2022/09/19 05:47:12;;;;;;;0.10;0.10;;;;;;;14.33;58.46;102074.00;5066244;28;20044;-80
2022/09/19 05:49:39;;;;;;;0.20;0.20;;;;;;;14.33;58.44;102066.00;5065662;28;20039;-81
2022/09/19 05:54:52;;;;;;;0.10;0.10;;;;;;;14.36;59.00;102074.81;5061022;28;20029;-80
2022/09/19 05:57:18;;;;;;;0.10;0.10;;;;;;;14.35;58.92;102073.06;5068997;28;20032;-80
2022/09/19 05:59:44;;;;;;;0.75;0.75;;;;;;;14.34;58.78;102081.09;5066225;28;20029;-80
2022/09/19 06:02:10;;;;;;;0.10;0.10;;;;;;;14.32;58.88;102073.13;5071770;28;20032;-80
2022/09/19 06:04:36;;;;;;;0.10;0.10;;;;;;;14.32;59.03;102078.44;5064897;28;20029;-80
2022/09/19 06:07:04;;;;;;;0.10;0.10;;;;;;;14.35;59.42;102074.84;5065747;28;20035;-81
2022/09/19 06:09:30;;;;;;;0.10;0.10;;;;;;;14.32;58.87;102080.25;5070689;28;20050;-79
2022/09/19 06:11:56;;;;;;;0.10;0.10;;;;;;;14.39;59.05;102077.47;5060815;28;20044;-79
2022/09/19 06:14:23;;;;;;;0.10;0.10;;;;;;;14.44;59.18;102090.69;5058792;28;20033;-79
2022/09/19 06:16:49;;;;;;;0.10;0.10;;;;;;;14.50;59.26;102089.72;5067234;28;20056;-79
2022/09/19 06:19:16;;;;;;;0.15;0.15;;;;;;;14.55;59.22;102091.41;5067459;28;20105;-79
2022/09/19 06:21:42;;;;;;;0.10;0.10;;;;;;;14.61;58.95;102097.56;5072902;28;20424;-79
2022/09/19 06:24:09;;;;;;;0.17;0.17;;;;;;;14.63;58.92;102091.28;5061294;28;20032;-79
2022/09/19 06:26:35;;;;;;;0.10;0.10;;;;;;;14.71;59.43;102107.19;5066963;28;20036;-79
2022/09/19 06:29:01;;;;;;;0.10;0.10;;;;;;;14.76;59.51;102110.66;5068700;28;20035;-79
2022/09/19 06:31:28;;;;;;;0.10;0.10;;;;;;;14.83;59.47;102109.66;5062834;28;20380;-79
2022/09/19 06:33:54;;;;;;;0.10;0.10;;;;;;;14.88;59.57;102099.75;5061965;28;20360;-79
2022/09/19 06:36:20;;;;;;;0.10;0.10;;;;;;;14.94;59.71;102113.91;5066283;28;20451;-79
2022/09/19 06:38:46;;;;;;;0.10;0.10;;;;;;;14.97;59.45;102117.41;5067586;28;20024;-79
2022/09/19 06:41:13;;;;;;;0.13;0.13;;;;;;;15.03;59.59;102117.28;5067389;28;20774;-79
2022/09/19 06:43:39;;;;;;;0.10;0.10;;;;;;;15.10;59.77;102122.50;5065802;28;20542;-80
2022/09/19 06:46:05;;;;;;;0.10;0.10;;;;;;;15.13;59.74;102118.00;5054060;28;20346;-79
2022/09/19 06:48:34;;;;;;;1.55;1.20;;;;;;;15.14;60.08;102125.09;5066515;28;20017;-76
2022/09/19 06:51:00;;;;;;;0.10;0.10;;;;;;;15.16;59.62;102122.41;5065666;28;20511;-78
2022/09/19 06:53:26;;;;;;;0.10;0.10;;;;;;;15.15;59.76;102132.22;5063049;28;20391;-79
2022/09/19 06:55:55;;;;;;;0.10;0.10;;;;;;;15.13;59.25;102130.47;5061742;28;20514;-79
2022/09/19 06:58:23;;;;;;;0.10;0.10;;;;;;;15.12;59.87;102126.91;5064878;28;20052;-79
2022/09/19 07:00:49;;;;;;;0.10;0.10;;;;;;;15.11;59.98;102130.50;5065992;28;20044;-79
2022/09/19 07:03:17;;;;;;;0.20;0.20;;;;;;;15.09;59.86;102126.09;5073984;28;20032;-79
2022/09/19 07:05:45;;;;;;;0.20;0.20;;;;;;;15.06;59.89;102131.50;5069312;28;20039;-79
2022/09/19 07:08:13;;;;;;;0.13;0.13;;;;;;;15.03;60.04;102137.78;5065056;28;20024;-80
2022/09/19 07:10:39;;;;;;;0.10;0.10;;;;;;;14.98;59.92;102132.50;5063026;28;20029;-79
2022/09/19 07:13:06;;;;;;;0.10;0.10;;;;;;;15.00;59.91;102133.38;5073451;28;20028;-79
2022/09/19 07:15:35;;;;;;;0.10;0.10;;;;;;;15.05;60.18;102143.94;5059823;28;20048;-79
2022/09/19 07:18:02;;;;;;;0.10;0.10;;;;;;;15.06;59.94;102142.19;5071645;28;20027;-80
2022/09/19 07:20:32;;;;;;;0.10;0.10;;;;;;;15.12;59.98;102142.94;5074285;28;20056;-80
2022/09/19 07:23:01;;;;;;;0.20;0.20;;;;;;;15.17;59.90;102138.38;5061898;28;20024;-80
2022/09/19 07:25:28;;;;;;;0.10;0.10;;;;;;;15.27;59.92;102138.22;5067023;28;20066;-79
2022/09/19 07:27:57;;;;;;;0.43;0.43;;;;;;;15.33;60.01;102147.00;5067038;28;20036;-79
2022/09/19 07:30:23;;;;;;;0.10;0.10;;;;;;;15.43;59.60;102147.69;5070830;28;20039;-79
2022/09/19 07:32:50;;;;;;;0.10;0.10;;;;;;;15.63;59.54;102146.44;5072633;28;20059;-80
2022/09/19 07:35:16;;;;;;;1.90;0.80;;;;;;;15.77;59.79;102136.31;5068009;28;20115;-79
2022/09/19 07:37:49;;;;;;;0.10;0.10;;;;;;;16.03;58.84;102137.59;5074367;28;20099;-78
2022/09/19 07:40:16;;;;;;;0.10;0.10;;;;;;;16.16;58.17;102141.75;5062985;28;20040;-79
2022/09/19 07:42:42;;;;;;;0.10;0.10;;;;;;;16.36;57.53;102145.75;5064936;28;20463;-79
2022/09/19 07:45:08;;;;;;;0.10;0.10;;;;;;;16.48;57.10;102150.78;5061253;28;20049;-79
2022/09/19 07:47:35;;;;;;;0.10;0.10;;;;;;;16.62;56.33;102150.50;5059104;28;20033;-78
2022/09/19 07:50:01;;;;;;;0.13;0.13;;;;;;;16.77;55.52;102154.59;5066403;28;20052;-78
2022/09/19 07:52:27;;;;;;;0.10;0.10;;;;;;;16.77;54.23;102165.28;5065647;28;20048;-78
2022/09/19 07:54:53;;;;;;;0.10;0.10;;;;;;;16.90;53.72;102163.16;5062434;28;20087;-78
2022/09/19 07:57:19;;;;;;;0.10;0.10;;;;;;;17.03;54.29;102174.47;5069968;28;20025;-78
2022/09/19 07:59:46;;;;;;;0.13;0.13;;;;;;;17.05;53.17;102167.28;5068531;28;20033;-79
2022/09/19 08:02:13;;;;;;;0.10;0.10;;;;;;;17.02;52.48;102166.47;5076412;28;20092;-78
2022/09/19 08:04:39;;;;;;;0.10;0.10;;;;;;;17.16;51.66;102168.78;5059143;28;20036;-79
2022/09/19 08:07:06;;;;;;;0.10;0.10;;;;;;;17.18;52.14;102173.19;5067435;28;20040;-79
2022/09/19 08:09:33;;;;;;;0.10;0.10;;;;;;;17.26;51.50;102170.31;5069597;28;20028;-79
2022/09/19 08:12:04;;;;;;;0.10;0.10;;;;;;;17.41;52.57;102166.34;5072733;28;20039;-78
2022/09/19 08:14:30;;;;;;;0.10;0.10;;;;;;;17.50;52.41;102170.56;5064322;28;20028;-77
2022/09/19 08:16:56;;;;;;;0.65;0.65;;;;;;;17.59;52.97;102172.97;5061986;28;20036;-78
2022/09/19 08:19:22;;;;;;;0.10;0.10;;;;;;;17.63;52.49;102190.72;5072622;28;20024;-79
2022/09/19 08:21:49;;;;;;;0.10;0.10;;;;;;;17.69;52.80;102195.91;5070652;28;20487;-79
2022/09/19 08:24:15;;;;;;;0.10;0.10;;;;;;;17.73;53.99;102202.97;5061349;28;20036;-79
2022/09/19 08:26:42;;;;;;;1.13;1.10;;;;;;;17.65;53.77;102193.38;5061301;28;20024;-79
2022/09/19 08:29:08;;;;;;;0.10;0.10;;;;;;;17.59;54.48;102199.78;5066463;28;20024;-79
2022/09/19 08:31:36;;;;;;;0.10;0.10;;;;;;;17.45;55.75;102203.72;5062052;28;20044;-78
2022/09/19 08:34:02;;;;;;;0.17;0.17;;;;;;;17.39;55.51;102201.19;5055075;28;20025;-79
2022/09/19 08:36:28;;;;;;;0.10;0.10;;;;;;;17.34;56.40;102200.44;5064374;28;20036;-81
2022/09/19 08:38:54;;;;;;;0.10;0.10;;;;;;;17.33;56.35;102203.19;5071427;28;20316;-79
2022/09/19 08:47:21;;;;;;;0.10;0.10;;;;;;;17.09;57.12;102205.56;5105516;27;20388;-79
2022/09/19 08:50:10;;;;;;;0.10;0.10;;;;;;;16.93;57.18;102215.78;5103465;28;20036;-78
2022/09/19 08:52:44;;;;;;;0.30;0.30;;;;;;;16.81;57.99;102220.50;5085232;28;20503;-78
2022/09/19 08:55:20;;;;;;;0.10;0.10;;;;;;;16.80;58.71;102216.06;5087958;28;20032;-79
2022/09/19 08:57:54;;;;;;;0.10;0.10;;;;;;;16.81;59.01;102215.13;5085348;28;20020;-78
2022/09/19 09:00:23;;;;;;;0.43;0.43;;;;;;;16.84;58.84;102224.03;5094799;28;20032;-78
2022/09/19 09:08:56;;;;;;;0.20;0.20;;;;;;;17.25;59.38;102212.28;5068558;28;20134;-79
2022/09/19 09:11:52;;;;;;;0.10;0.10;;;;;;;17.32;59.29;102217.47;5064073;28;20036;-78
2022/09/19 09:15:01;;;;;;;0.10;0.10;;;;;;;17.43;59.10;102212.72;5055246;28;20043;-79
2022/09/19 09:17:53;;;;;;;0.10;0.10;;;;;;;17.52;58.82;102203.53;5066829;28;20040;-79
2022/09/19 09:20:58;;;;;;;0.10;0.10;;;;;;;17.66;59.67;102205.84;5065270;28;20025;-79
2022/09/19 09:23:31;;;;;;;0.10;0.10;;;;;;;17.70;59.87;102207.53;5060646;28;20112;-78
2022/09/19 09:26:02;;;;;;;0.10;0.10;;;;;;;17.81;58.81;102204.53;5056272;28;20029;-79
2022/09/19 09:31:25;;;;;;;0.10;0.10;;;;;;;17.96;58.73;102209.50;5100557;27;20385;-79
2022/09/19 09:34:17;;;;;;;0.10;0.10;;;;;;;18.18;58.78;102208.84;5088004;28;20028;-79
2022/09/19 09:36:55;;;;;;;0.20;0.20;;;;;;;18.16;55.72;102206.22;5088699;28;20040;-79
2022/09/19 09:42:01;;;;;;;0.57;0.57;;;;;;;18.26;54.51;102201.44;5090844;27;20383;-80
2022/09/19 09:47:44;;;;;;;0.25;0.25;;;;;;;18.26;52.60;102212.19;5130158;27;20893;-79
2022/09/19 09:59:01;;;;;;;0.10;0.10;;;;;;;18.11;50.27;102211.72;5043817;28;20403;-80
2022/09/19 10:04:51;;;;;;;0.10;0.10;;;;;;;18.31;48.64;102214.72;5025084;28;20068;-79
2022/09/19 10:07:58;;;;;;;0.10;0.10;;;;;;;18.51;49.83;102211.44;5020497;28;20034;-80
2022/09/19 10:10:26;;;;;;;0.10;0.10;;;;;;;18.66;49.07;102194.81;5021371;28;20486;-79
2022/09/19 10:12:59;;;;;;;0.10;0.10;;;;;;;18.86;49.25;102198.66;5025300;28;20165;-79
2022/09/19 10:15:26;;;;;;;0.10;0.10;;;;;;;18.92;48.60;102201.16;5029272;28;20026;-79
2022/09/19 10:18:05;;;;;;;0.45;0.45;;;;;;;18.87;45.43;102220.09;5028564;28;20029;-79
2022/09/19 10:20:38;;;;;;;0.10;0.10;;;;;;;18.88;46.73;102213.78;5026207;28;20041;-79
2022/09/19 10:23:11;;;;;;;0.30;0.30;;;;;;;18.68;46.05;102219.81;5015841;28;20498;-80
2022/09/19 10:25:37;;;;;;;0.30;0.30;;;;;;;18.58;45.56;102213.00;5028747;28;20025;-79
2022/09/19 10:28:27;;;;;;;0.10;0.10;;;;;;;18.72;46.11;102226.84;5023109;28;20029;-80
2022/09/19 10:30:58;;;;;;;0.10;0.10;;;;;;;18.73;44.72;102212.47;5016136;28;20478;-79
2022/09/19 10:36:06;;;;;;;0.10;0.10;;;;;;;18.89;44.95;102217.34;5074658;28;20329;-79
2022/09/19 10:38:49;;;;;;;0.10;0.10;;;;;;;19.04;44.35;102215.97;5063420;28;20862;-79
2022/09/19 10:41:19;;;;;;;0.10;0.10;;;;;;;18.94;43.79;102220.81;5065681;28;20036;-80
2022/09/19 10:43:49;;;;;;;0.10;0.10;;;;;;;19.12;45.17;102213.06;5058432;28;20090;-79
2022/09/19 10:46:22;;;;;;;0.10;0.10;;;;;;;19.10;42.97;102213.09;5057023;28;20036;-79
2022/09/19 10:48:54;;;;;;;0.10;0.10;;;;;;;19.04;44.34;102205.22;5066199;28;20388;-79
2022/09/19 10:51:21;;;;;;;;;;;;;;;19.08;44.81;102205.09;5066254;28;20116;-79
2022/09/19 10:53:53;;;;;;;3.30;0.82;;;;;;;18.96;44.93;102216.25;5069603;28;19962;-79
2022/09/19 10:56:28;;;;;;;0.10;0.10;;;;;;;18.98;44.46;102206.34;5060869;28;20028;-82
2022/09/19 10:59:20;;;;;;;0.10;0.10;;;;;;;19.19;44.40;102212.78;5054795;28;20060;-80
2022/09/19 11:05:03;;;;;;;0.10;0.10;;;;;;;19.67;44.10;102211.09;5108893;27;20376;-79
2022/09/19 11:07:33;;;;;;;0.10;0.10;;;;;;;19.70;42.87;102210.09;5101893;28;20556;-79
2022/09/19 11:10:01;;;;;;;0.00;0.00;;;;;;;19.72;45.21;102214.47;5101941;28;20032;-80
2022/09/19 11:12:31;;;;;;;0.10;0.10;;;;;;;19.71;42.60;102212.75;5092619;28;20028;-80
2022/09/19 11:14:58;;;;;;;0.10;0.10;;;;;;;19.59;42.49;102223.94;5097428;28;20036;-80
2022/09/19 11:17:55;;;;;;;0.65;0.65;;;;;;;19.52;43.94;102217.88;5102769;28;20043;-83
2022/09/19 11:29:10;;;;;;;0.10;0.10;;;;;;;19.77;43.73;102219.69;5085057;27;20386;-79
2022/09/19 11:34:28;;;;;;;0.20;0.20;;;;;;;20.03;43.42;102210.69;5109901;27;20143;-77
2022/09/19 11:43:06;;;;;;;0.10;0.10;;;;;;;20.55;41.86;102216.75;5045096;27;20433;-81
2022/09/19 11:45:59;;;;;;;0.10;0.10;;;;;;;20.57;40.28;102202.31;5018184;28;20045;-82
2022/09/19 11:48:45;;;;;;;0.10;0.10;;;;;;;20.62;38.83;102203.03;5029538;28;20036;-80
2022/09/19 11:51:26;;;;;;;0.22;0.22;;;;;;;20.71;39.58;102208.94;5049423;27;20034;-83
2022/09/19 11:56:43;;;;;;;0.10;0.10;;;;;;;20.96;42.46;102206.13;5057864;28;20396;-80
2022/09/19 12:09:22;;;;;;;0.10;0.10;;;;;;;21.43;42.76;102202.34;5062861;28;20209;-79
2022/09/19 12:11:55;;;;;;;0.10;0.10;;;;;;;21.60;43.27;102194.41;5067276;28;20028;-77
2022/09/19 12:14:27;;;;;;;0.10;0.10;;;;;;;21.64;42.64;102198.69;5068408;28;20502;-79
2022/09/19 12:17:01;;;;;;;0.10;0.10;;;;;;;21.54;42.80;102182.97;5069049;28;20032;-78
2022/09/19 12:19:36;;;;;;;0.10;0.10;;;;;;;21.56;41.48;102190.09;5069177;28;20481;-79
2022/09/19 12:22:12;;;;;;;0.10;0.10;;;;;;;21.42;41.09;102185.28;5063732;28;20553;-78
2022/09/19 12:24:52;;;;;;;0.10;0.10;;;;;;;21.11;42.27;102193.81;5061926;28;20028;-78
2022/09/19 12:30:13;;;;;;;0.20;0.20;;;;;;;20.69;43.68;102209.00;5059871;28;20365;-80
2022/09/19 12:33:06;;;;;;;0.47;0.47;;;;;;;20.61;43.94;102209.34;5056492;28;20024;-79
2022/09/19 12:35:35;;;;;;;;;;;;;;;20.42;42.78;102205.63;5055905;28;20038;-80
2022/09/19 12:47:04;;;;;;;0.10;0.10;;;;;;;19.72;44.91;102221.69;5118260;27;20771;-78
2022/09/19 12:49:45;;;;;;;0.00;0.00;;;;;;;19.67;45.39;102216.47;5119311;28;20504;-80
2022/09/19 12:52:21;;;;;;;0.10;0.10;;;;;;;19.54;44.99;102229.47;5117974;28;20060;-79
2022/09/19 12:58:07;;;;;;;0.30;0.30;;;;;;;19.61;45.00;102222.06;5104879;27;20417;-77
2022/09/19 13:00:42;;;;;;;0.10;0.10;;;;;;;19.54;43.82;102229.47;5096033;28;20045;-78
2022/09/19 13:06:08;;;;;;;0.10;0.10;;;;;;;19.54;43.95;102226.78;5095574;27;1200799;-78
2022/09/19 13:08:41;;;;;;;0.20;0.20;;;;;;;19.48;44.18;102234.22;5103990;28;20035;-78
2022/09/19 13:16:34;;;;;;;0.10;0.10;;;;;;;20.04;44.66;102244.72;5089303;27;20716;-80
2022/09/19 13:27:20;;;;;;;0.00;0.00;;;;;;;20.19;44.17;102248.66;5095223;27;20404;-78
2022/09/19 13:29:49;;;;;;;0.10;0.10;;;;;;;20.14;44.87;102247.06;5103505;28;20412;-77
2022/09/19 13:32:55;;;;;;;0.10;0.10;;;;;;;20.11;44.94;102248.06;5089902;28;20032;-76
2022/09/19 13:35:24;;;;;;;0.10;0.10;;;;;;;19.70;50.32;102264.75;5098033;28;20127;-76
2022/09/19 13:37:56;;;;;;;0.10;0.10;;;;;;;19.36;52.55;102265.94;5089607;28;20027;-79
2022/09/19 13:45:59;;;;;;;0.10;0.10;;;;;;;18.13;54.48;102259.06;5072448;27;20390;-79
2022/09/19 13:48:35;;;;;;;0.10;0.10;;;;;;;17.92;57.11;102262.28;5063928;28;20547;-76
2022/09/19 13:51:30;;;;;;;0.10;0.10;;;;;;;17.85;54.86;102267.88;5068002;28;20033;-78
2022/09/19 13:57:05;;;;;;;0.10;0.10;;;;;;;17.24;58.61;102264.09;5089183;28;20126;-79
2022/09/19 13:59:41;;;;;;;0.10;0.10;;;;;;;17.02;58.89;102253.03;5078159;28;20107;-79
2022/09/19 14:05:04;;;;;;;0.10;0.10;;;;;;;16.94;59.43;102249.69;5107747;27;20392;-76
2022/09/19 14:07:37;;;;;;;0.03;0.03;;;;;;;17.08;58.47;102255.56;5101987;28;20055;-78
2022/09/19 14:10:16;;;;;;;0.10;0.10;;;;;;;17.41;60.09;102254.75;5092570;28;20032;-77
2022/09/19 14:15:43;;;;;;;0.05;0.05;;;;;;;18.17;57.05;102239.25;5061315;28;20392;-77